TEG weather

Tenkodogo Airport
Tenkodogo, Boulgou, Burkina Faso

Public forecast

Using degrees Celsius for public forecast. Weather courtesy of forecast.io.

METAR (pilot weather report)

Report is more than 6 hours old.

Closest report is Fada N'gourma Airport, 44.4 nm (82.2 km) ENE. Retrieved 2009/09/21 17:00 UTC (10 years ago):

DFEF 211700Z 00000KT 9999 FEW0226 TCU BKN260 30/25

TAF (pilot weather forecast)

Forecast is more than 12 hours old.

Closest forecast is Ouagadougou Airport, 75.0 nm (138.9 km) WNW. Retrieved 2019/03/21 00:22 UTC (2 days ago):

TAF DFFD 212300Z 2200/2306 36008KT 8000 NSC TEMPO 2206/2210 4000 DU TEMPO 2217/2220 4000 DU